createdAt,value
2022-07-30T00:00:24.980Z,11.10
2022-07-30T00:02:52.495Z,12.27
2022-07-30T00:05:19.751Z,10.70
2022-07-30T00:07:47.367Z,10.48
2022-07-30T00:10:14.732Z,10.67
2022-07-30T00:12:41.811Z,9.75
2022-07-30T00:15:09.140Z,9.38
2022-07-30T00:17:36.343Z,10.52
2022-07-30T00:20:03.877Z,10.48
2022-07-30T00:22:31.367Z,14.57
2022-07-30T00:24:58.574Z,11.88
2022-07-30T00:27:25.948Z,12.45
2022-07-30T00:29:52.998Z,10.52
2022-07-30T00:32:20.180Z,15.23
2022-07-30T00:34:47.638Z,9.93
2022-07-30T00:37:14.863Z,17.13
2022-07-30T00:39:41.993Z,11.07
2022-07-30T00:42:09.203Z,9.50
2022-07-30T00:44:36.335Z,12.07
2022-07-30T00:47:08.390Z,15.73
2022-07-30T00:49:35.544Z,11.47
2022-07-30T00:52:02.834Z,11.07
2022-07-30T00:54:29.945Z,9.93
2022-07-30T00:56:57.245Z,8.15
2022-07-30T00:59:24.458Z,9.60
2022-07-30T01:01:51.662Z,9.48
2022-07-30T01:04:18.825Z,9.30
2022-07-30T01:06:45.970Z,8.95
2022-07-30T01:09:13.085Z,8.40
2022-07-30T01:11:41.698Z,8.18
2022-07-30T01:14:10.110Z,9.18
2022-07-30T01:16:38.616Z,10.38
2022-07-30T01:19:28.542Z,9.20
2022-07-30T01:22:01.290Z,8.75
2022-07-30T01:24:31.217Z,8.50
2022-07-30T01:26:58.872Z,9.15
2022-07-30T01:29:28.110Z,7.93
2022-07-30T01:31:59.511Z,7.65
2022-07-30T01:34:29.713Z,12.82
2022-07-30T01:36:58.919Z,14.02
2022-07-30T01:39:27.234Z,9.10
2022-07-30T01:41:55.224Z,10.73
2022-07-30T01:44:24.219Z,11.13
2022-07-30T01:46:51.699Z,8.02
2022-07-30T01:49:20.464Z,10.90
2022-07-30T01:51:48.469Z,9.65
2022-07-30T01:54:17.664Z,7.82
2022-07-30T01:56:46.544Z,8.80
2022-07-30T01:59:14.990Z,10.27
2022-07-30T02:01:42.200Z,11.15
2022-07-30T02:04:09.596Z,14.65
2022-07-30T02:06:41.797Z,12.13
2022-07-30T02:09:11.049Z,12.18
2022-07-30T02:12:02.065Z,12.68
2022-07-30T02:14:39.669Z,13.20
2022-07-30T02:17:08.648Z,11.65
2022-07-30T02:19:46.580Z,10.50
2022-07-30T02:22:15.718Z,9.60
2022-07-30T02:24:43.649Z,9.40
2022-07-30T02:27:14.831Z,9.38
2022-07-30T02:29:43.188Z,9.95
2022-07-30T02:32:11.784Z,9.43
2022-07-30T02:34:40.993Z,9.70
2022-07-30T02:37:09.443Z,10.65
2022-07-30T02:39:37.105Z,11.43
2022-07-30T02:42:05.380Z,12.63
2022-07-30T02:44:32.867Z,13.20
2022-07-30T02:47:04.449Z,14.57
2022-07-30T02:49:35.426Z,12.48
2022-07-30T02:52:03.862Z,13.38
2022-07-30T02:54:31.532Z,14.52
2022-07-30T02:57:00.772Z,12.27
2022-07-30T02:59:29.402Z,13.00
2022-07-30T03:01:57.260Z,12.73
2022-07-30T03:04:26.434Z,13.38
2022-07-30T03:06:54.730Z,16.90
2022-07-30T03:09:21.946Z,15.13
2022-07-30T03:11:52.165Z,14.48
2022-07-30T03:14:19.381Z,14.27
2022-07-30T03:16:49.019Z,14.20
2022-07-30T03:19:17.270Z,13.30
2022-07-30T03:21:45.549Z,15.43
2022-07-30T03:24:13.046Z,15.03
2022-07-30T03:26:40.309Z,14.50
2022-07-30T03:29:07.505Z,14.00
2022-07-30T03:31:37.944Z,14.10
2022-07-30T03:34:06.441Z,15.63
2022-07-30T03:36:34.060Z,17.27
2022-07-30T03:39:02.094Z,17.70
2022-07-30T03:41:29.347Z,17.97
2022-07-30T03:43:56.925Z,18.80
2022-07-30T03:46:24.736Z,21.52
2022-07-30T03:48:53.060Z,23.90
2022-07-30T03:51:20.437Z,28.33
2022-07-30T03:53:47.914Z,28.00
2022-07-30T03:56:15.873Z,29.33
2022-07-30T03:58:43.104Z,28.67
2022-07-30T04:01:10.292Z,31.80
2022-07-30T04:03:37.692Z,32.27
2022-07-30T04:06:05.150Z,36.30
2022-07-30T04:08:32.418Z,35.27
2022-07-30T04:10:59.609Z,34.13
2022-07-30T04:13:26.591Z,35.67
2022-07-30T04:16:37.450Z,30.67
2022-07-30T04:18:43.677Z,31.25
2022-07-30T04:21:16.110Z,32.88
2022-07-30T04:24:01.903Z,32.03
2022-07-30T04:26:32.880Z,31.20
2022-07-30T04:29:00.390Z,30.55
2022-07-30T04:31:28.149Z,30.85
2022-07-30T04:33:55.552Z,32.63
2022-07-30T04:36:28.196Z,36.75
2022-07-30T04:38:55.305Z,36.47
2022-07-30T04:41:22.487Z,33.03
2022-07-30T04:43:49.665Z,36.20
2022-07-30T04:46:16.882Z,35.67
2022-07-30T04:48:44.101Z,35.05
2022-07-30T04:51:20.709Z,34.05
2022-07-30T04:53:48.325Z,34.35
2022-07-30T04:56:15.884Z,34.93
2022-07-30T04:58:44.461Z,32.10
2022-07-30T05:01:12.506Z,34.33
2022-07-30T05:03:40.672Z,36.67
2022-07-30T05:06:08.895Z,35.83
2022-07-30T05:08:38.679Z,35.57
2022-07-30T05:11:05.883Z,32.50
2022-07-30T05:13:34.408Z,32.92
2022-07-30T05:16:04.577Z,31.83
2022-07-30T05:18:31.824Z,28.50
2022-07-30T05:20:59.208Z,29.75
2022-07-30T05:23:26.358Z,27.23
2022-07-30T05:25:53.468Z,33.60
2022-07-30T05:28:20.618Z,30.05
2022-07-30T05:30:47.762Z,30.42
2022-07-30T05:33:15.477Z,28.42
2022-07-30T05:35:43.225Z,28.70
2022-07-30T05:38:10.398Z,27.20
2022-07-30T05:40:37.582Z,25.83
2022-07-30T05:43:04.873Z,27.00
2022-07-30T05:45:32.298Z,25.77
2022-07-30T05:47:59.406Z,23.65
2022-07-30T05:50:26.594Z,24.42
2022-07-30T05:52:53.810Z,23.65
2022-07-30T05:55:20.982Z,23.00
2022-07-30T05:57:48.110Z,21.23
2022-07-30T06:00:16.016Z,22.65
2022-07-30T06:02:43.178Z,22.58
2022-07-30T06:05:10.383Z,21.05
2022-07-30T06:07:37.481Z,21.77
2022-07-30T06:10:05.370Z,19.40
2022-07-30T06:12:32.533Z,18.00
2022-07-30T06:15:00.034Z,18.50
2022-07-30T06:17:27.128Z,18.50
2022-07-30T06:19:54.350Z,18.35
2022-07-30T06:22:25.818Z,16.73
2022-07-30T06:24:53.305Z,15.82
2022-07-30T06:27:20.905Z,16.10
2022-07-30T06:29:48.035Z,14.73
2022-07-30T06:32:15.148Z,14.75
2022-07-30T06:34:42.282Z,13.20
2022-07-30T06:37:09.402Z,13.98
2022-07-30T06:39:57.052Z,14.38
2022-07-30T06:42:23.598Z,14.60
2022-07-30T06:44:50.847Z,12.57
2022-07-30T06:47:28.959Z,14.98
2022-07-30T06:49:56.602Z,11.73
2022-07-30T06:52:24.234Z,11.18
2022-07-30T06:54:51.506Z,9.85
2022-07-30T06:57:18.817Z,8.50
2022-07-30T06:59:56.126Z,10.23
2022-07-30T07:02:24.779Z,9.20
2022-07-30T07:04:51.880Z,10.10
2022-07-30T07:07:37.071Z,9.88
2022-07-30T07:10:06.314Z,9.77
2022-07-30T07:12:33.437Z,10.35
2022-07-30T07:15:00.576Z,10.23
2022-07-30T07:17:27.753Z,11.13
2022-07-30T07:20:01.127Z,10.88
2022-07-30T07:22:29.455Z,10.60
2022-07-30T07:24:56.514Z,10.25
2022-07-30T07:27:23.714Z,10.38
2022-07-30T07:30:04.920Z,10.10
2022-07-30T07:32:33.063Z,9.88
2022-07-30T07:35:00.282Z,8.82
2022-07-30T07:37:27.597Z,8.83
2022-07-30T07:39:54.721Z,8.70
2022-07-30T07:42:22.033Z,8.15
2022-07-30T07:44:49.213Z,7.47
2022-07-30T07:47:16.277Z,7.30
2022-07-30T07:49:43.433Z,6.95
2022-07-30T07:52:10.592Z,7.28
2022-07-30T07:54:37.706Z,6.95
2022-07-30T07:57:08.010Z,7.13
2022-07-30T07:59:40.615Z,6.30
2022-07-30T08:02:08.635Z,6.20
2022-07-30T08:04:36.425Z,6.88
2022-07-30T08:07:04.539Z,7.32
2022-07-30T08:09:44.259Z,7.85
2022-07-30T08:12:12.805Z,7.47
2022-07-30T08:14:40.045Z,7.60
2022-07-30T08:17:07.736Z,7.20
2022-07-30T08:19:35.583Z,6.67
2022-07-30T08:22:02.771Z,6.20
2022-07-30T08:24:29.960Z,5.82
2022-07-30T08:26:57.121Z,7.10
2022-07-30T08:29:24.356Z,6.63
2022-07-30T08:31:51.540Z,6.60
2022-07-30T08:34:20.280Z,6.18
2022-07-30T08:36:52.840Z,5.70
2022-07-30T08:39:20.039Z,6.63
2022-07-30T08:41:49.456Z,6.22
2022-07-30T08:44:18.579Z,5.60
2022-07-30T08:46:47.861Z,5.22
2022-07-30T08:49:15.312Z,5.10
2022-07-30T08:51:42.820Z,4.82
2022-07-30T08:54:09.922Z,4.13
2022-07-30T08:56:37.740Z,4.05
2022-07-30T08:59:05.466Z,5.53
2022-07-30T09:01:32.624Z,4.70
2022-07-30T09:03:59.769Z,4.15
2022-07-30T09:06:26.810Z,4.38
2022-07-30T09:08:54.540Z,4.10
2022-07-30T09:11:21.726Z,4.32
2022-07-30T09:13:50.768Z,3.80
2022-07-30T09:16:24.630Z,3.00
2022-07-30T09:18:52.178Z,3.22
2022-07-30T09:21:24.729Z,3.28
2022-07-30T09:23:55.918Z,4.00
2022-07-30T09:26:23.010Z,3.45
2022-07-30T09:28:50.143Z,3.22
2022-07-30T09:31:18.244Z,3.08
2022-07-30T09:33:47.366Z,3.40
2022-07-30T09:36:17.289Z,3.30
2022-07-30T09:38:49.353Z,3.10
2022-07-30T09:41:37.238Z,3.03
2022-07-30T09:44:06.283Z,3.43
2022-07-30T09:46:51.843Z,3.10
2022-07-30T09:49:20.791Z,3.30
2022-07-30T09:51:55.623Z,3.15
2022-07-30T09:54:25.238Z,3.03
2022-07-30T09:57:22.717Z,3.20
2022-07-30T09:59:53.913Z,2.80
2022-07-30T10:02:22.479Z,3.10
2022-07-30T10:04:53.778Z,4.50
2022-07-30T10:07:25.515Z,2.63
2022-07-30T10:09:54.170Z,2.63
2022-07-30T10:12:23.931Z,2.63
2022-07-30T10:14:54.190Z,3.40
2022-07-30T10:17:22.757Z,4.03
2022-07-30T10:19:50.021Z,4.97
2022-07-30T10:22:17.680Z,3.30
2022-07-30T10:24:46.781Z,3.20
2022-07-30T10:27:14.022Z,3.88
2022-07-30T10:29:42.813Z,4.10
2022-07-30T10:32:10.176Z,2.67
2022-07-30T10:34:42.622Z,3.40
2022-07-30T10:37:12.356Z,2.73
2022-07-30T10:39:47.152Z,2.90
2022-07-30T10:42:17.798Z,3.10
2022-07-30T10:44:44.864Z,2.83
2022-07-30T10:47:16.232Z,4.13
2022-07-30T10:50:03.326Z,2.80
2022-07-30T10:52:50.689Z,3.30
2022-07-30T10:55:36.650Z,2.70
2022-07-30T10:58:09.903Z,3.20
2022-07-30T11:00:58.397Z,2.90
2022-07-30T11:03:41.377Z,3.70
2022-07-30T11:06:15.534Z,4.03
2022-07-30T11:08:45.005Z,5.60
2022-07-30T11:12:01.977Z,4.00
2022-07-30T11:14:09.864Z,4.07
2022-07-30T11:16:37.304Z,5.25
2022-07-30T11:22:12.551Z,5.67
2022-07-30T11:24:43.767Z,4.00
2022-07-30T11:27:32.647Z,3.40
2022-07-30T11:30:04.075Z,5.00
2022-07-30T11:32:32.397Z,3.72
2022-07-30T11:35:20.363Z,4.28
2022-07-30T11:37:56.852Z,3.25
2022-07-30T11:40:26.291Z,3.00
2022-07-30T11:43:13.605Z,3.08
2022-07-30T11:45:40.832Z,3.00
2022-07-30T11:48:10.862Z,4.63
2022-07-30T11:50:38.053Z,2.85
2022-07-30T11:53:06.420Z,2.40
2022-07-30T11:55:34.621Z,3.30
2022-07-30T11:58:02.478Z,3.22
2022-07-30T12:00:38.570Z,2.80
2022-07-30T12:03:09.715Z,3.40
2022-07-30T12:05:36.896Z,2.97
2022-07-30T12:08:05.310Z,3.13
2022-07-30T12:10:32.646Z,3.00
2022-07-30T12:13:08.157Z,5.60
2022-07-30T12:15:36.247Z,3.70
2022-07-30T12:18:24.554Z,4.53
2022-07-30T12:21:22.531Z,4.40
2022-07-30T12:24:00.419Z,3.00
2022-07-30T12:26:29.414Z,3.17
2022-07-30T12:28:58.624Z,2.72
2022-07-30T12:31:26.231Z,3.93
2022-07-30T12:33:56.151Z,3.37
2022-07-30T12:36:26.521Z,2.60
2022-07-30T12:38:54.582Z,3.45
2022-07-30T12:41:22.530Z,2.50
2022-07-30T12:43:51.425Z,2.67
2022-07-30T12:46:19.957Z,2.63
2022-07-30T12:48:50.797Z,2.97
2022-07-30T12:51:18.081Z,2.97
2022-07-30T12:53:46.074Z,3.20
2022-07-30T12:56:14.044Z,2.45
2022-07-30T12:58:41.746Z,4.33
2022-07-30T13:01:09.631Z,2.40
2022-07-30T13:03:39.786Z,2.73
2022-07-30T13:06:12.670Z,2.47
2022-07-30T13:08:59.654Z,2.30
2022-07-30T13:11:28.080Z,2.95
2022-07-30T13:13:55.260Z,3.57
2022-07-30T13:16:22.375Z,2.33
2022-07-30T13:18:49.526Z,2.63
2022-07-30T13:21:16.677Z,2.30
2022-07-30T13:23:43.793Z,2.70
2022-07-30T13:26:11.034Z,2.67
2022-07-30T13:28:38.657Z,2.30
2022-07-30T13:31:07.508Z,12.02
2022-07-30T13:33:35.590Z,17.20
2022-07-30T13:36:02.762Z,29.13
2022-07-30T13:38:30.159Z,5.22
2022-07-30T13:41:02.243Z,11.48
2022-07-30T13:43:32.056Z,6.90
2022-07-30T13:46:01.619Z,4.30
2022-07-30T13:48:28.741Z,3.20
2022-07-30T13:50:56.198Z,58.60
2022-07-30T13:53:23.445Z,16.58
2022-07-30T13:55:50.857Z,11.20
2022-07-30T13:58:18.009Z,13.50
2022-07-30T14:00:45.341Z,2.83
2022-07-30T14:03:12.625Z,3.10
2022-07-30T14:05:42.016Z,2.40
2022-07-30T14:08:10.716Z,2.70
2022-07-30T14:10:38.244Z,2.58
2022-07-30T14:13:05.679Z,2.40
2022-07-30T14:15:32.953Z,2.80
2022-07-30T14:18:00.985Z,2.67
2022-07-30T14:20:29.041Z,3.83
2022-07-30T14:22:56.704Z,2.58
2022-07-30T14:25:23.884Z,2.50
2022-07-30T14:27:51.060Z,3.85
2022-07-30T14:30:18.346Z,3.28
2022-07-30T14:32:46.028Z,2.78
2022-07-30T14:35:13.128Z,2.95
2022-07-30T14:37:40.568Z,3.20
2022-07-30T14:40:08.861Z,2.70
2022-07-30T14:42:39.887Z,2.50
2022-07-30T14:45:08.004Z,3.67
2022-07-30T14:47:35.084Z,2.53
2022-07-30T14:50:02.226Z,2.70
2022-07-30T14:52:29.623Z,2.77
2022-07-30T14:54:56.413Z,3.20
2022-07-30T14:57:23.496Z,2.60
2022-07-30T14:59:50.629Z,3.23
2022-07-30T15:02:17.744Z,2.60
2022-07-30T15:04:44.972Z,2.80
2022-07-30T15:07:12.964Z,3.88
2022-07-30T15:09:40.119Z,3.40
2022-07-30T15:12:10.068Z,4.28
2022-07-30T15:14:38.087Z,6.17
2022-07-30T15:17:05.984Z,2.40
2022-07-30T15:19:33.409Z,2.57
2022-07-30T15:22:02.449Z,3.05
2022-07-30T15:24:29.788Z,2.55
2022-07-30T15:26:56.942Z,3.17
2022-07-30T15:29:24.321Z,2.55
2022-07-30T15:31:51.931Z,3.08
2022-07-30T15:34:19.127Z,2.60
2022-07-30T15:36:46.211Z,2.33
2022-07-30T15:39:13.423Z,2.58
2022-07-30T15:41:42.791Z,3.47
2022-07-30T15:44:09.904Z,3.15
2022-07-30T15:46:37.046Z,3.20
2022-07-30T15:49:04.229Z,4.95
2022-07-30T15:51:32.645Z,2.97
2022-07-30T15:53:59.831Z,3.50
2022-07-30T15:56:28.245Z,4.07
2022-07-30T15:58:55.495Z,4.18
2022-07-30T16:01:22.946Z,5.30
2022-07-30T16:03:50.078Z,6.18
2022-07-30T16:06:17.249Z,3.30
2022-07-30T16:08:44.365Z,4.60
2022-07-30T16:11:11.487Z,3.55
2022-07-30T16:13:38.583Z,4.15
2022-07-30T16:16:05.819Z,4.85
2022-07-30T16:18:32.935Z,3.35
2022-07-30T16:21:01.137Z,4.35
2022-07-30T16:23:28.659Z,3.92
2022-07-30T16:26:04.035Z,2.95
2022-07-30T16:28:31.212Z,3.35
2022-07-30T16:30:58.833Z,4.05
2022-07-30T16:33:25.974Z,4.82
2022-07-30T16:35:52.726Z,4.32
2022-07-30T16:38:20.191Z,4.40
2022-07-30T16:40:47.573Z,27.60
2022-07-30T16:43:15.657Z,4.15
2022-07-30T16:45:47.277Z,3.42
2022-07-30T16:48:14.437Z,3.40
2022-07-30T16:50:42.285Z,4.40
2022-07-30T16:53:13.767Z,3.60
2022-07-30T16:55:41.937Z,4.53
2022-07-30T16:58:09.179Z,4.93
2022-07-30T17:00:36.291Z,3.00
2022-07-30T17:03:03.513Z,4.20
2022-07-30T17:05:30.647Z,3.30
2022-07-30T17:07:57.939Z,3.92
2022-07-30T17:10:26.598Z,6.18
2022-07-30T17:12:54.691Z,3.45
2022-07-30T17:15:32.934Z,3.00
2022-07-30T17:18:00.767Z,4.93
2022-07-30T17:20:28.065Z,4.07
2022-07-30T17:22:56.040Z,3.20
2022-07-30T17:25:25.597Z,3.20
2022-07-30T17:27:52.714Z,2.97
2022-07-30T17:30:20.500Z,4.60
2022-07-30T17:32:47.721Z,3.17
2022-07-30T17:35:14.848Z,4.07
2022-07-30T17:37:41.932Z,3.53
2022-07-30T17:40:26.317Z,2.95
2022-07-30T17:43:02.998Z,3.00
2022-07-30T17:45:30.978Z,2.90
2022-07-30T17:47:58.365Z,3.97
2022-07-30T17:50:25.504Z,2.97
2022-07-30T17:52:52.277Z,4.03
2022-07-30T17:55:19.482Z,3.70
2022-07-30T17:57:46.605Z,4.20
2022-07-30T18:00:13.998Z,4.05
2022-07-30T18:02:41.068Z,3.10
2022-07-30T18:05:10.460Z,3.47
2022-07-30T18:07:37.946Z,6.13
2022-07-30T18:10:05.213Z,3.60
2022-07-30T18:12:32.448Z,4.38
2022-07-30T18:14:59.623Z,5.60
2022-07-30T18:17:27.056Z,4.65
2022-07-30T18:19:54.429Z,3.17
2022-07-30T18:22:29.343Z,3.30
2022-07-30T18:25:00.537Z,3.58
2022-07-30T18:27:27.976Z,3.00
2022-07-30T18:29:55.106Z,3.72
2022-07-30T18:32:23.446Z,4.47
2022-07-30T18:34:50.649Z,4.60
2022-07-30T18:37:17.840Z,4.18
2022-07-30T18:39:44.989Z,3.25
2022-07-30T18:42:12.181Z,4.32
2022-07-30T18:44:39.316Z,5.83
2022-07-30T18:47:06.497Z,3.50
2022-07-30T18:49:36.942Z,4.15
2022-07-30T18:52:05.677Z,4.13
2022-07-30T18:54:32.972Z,3.30
2022-07-30T18:57:00.152Z,3.25
2022-07-30T18:59:27.297Z,3.88
2022-07-30T19:01:54.448Z,4.07
2022-07-30T19:04:21.616Z,3.30
2022-07-30T19:06:48.904Z,4.30
2022-07-30T19:09:17.980Z,3.67
2022-07-30T19:11:46.916Z,3.42
2022-07-30T19:14:14.615Z,3.65
2022-07-30T19:16:42.506Z,3.70
2022-07-30T19:19:10.309Z,3.88
2022-07-30T19:21:37.406Z,4.38
2022-07-30T19:24:04.912Z,4.25
2022-07-30T19:26:32.167Z,4.05
2022-07-30T19:28:59.472Z,6.30
2022-07-30T19:31:27.034Z,4.28
2022-07-30T19:33:54.156Z,4.35
2022-07-30T19:36:21.233Z,4.03
2022-07-30T19:38:50.006Z,4.63
2022-07-30T19:41:17.344Z,5.55
2022-07-30T19:43:58.074Z,3.90
2022-07-30T19:46:25.536Z,3.77
2022-07-30T19:48:52.781Z,4.18
2022-07-30T19:51:21.098Z,3.60
2022-07-30T19:53:52.574Z,3.85
2022-07-30T19:56:19.786Z,4.20
2022-07-30T19:58:46.912Z,4.63
2022-07-30T20:01:15.657Z,4.55
2022-07-30T20:03:45.972Z,5.60
2022-07-30T20:06:15.731Z,4.20
2022-07-30T20:08:44.825Z,4.88
2022-07-30T20:11:12.135Z,4.55
2022-07-30T20:13:48.451Z,4.65
2022-07-30T20:16:16.051Z,4.90
2022-07-30T20:18:44.432Z,4.78
2022-07-30T20:21:15.391Z,5.22
2022-07-30T20:23:43.169Z,5.55
2022-07-30T20:26:13.946Z,4.78
2022-07-30T20:28:42.061Z,5.03
2022-07-30T20:31:09.273Z,5.20
2022-07-30T20:33:39.018Z,5.30
2022-07-30T20:36:09.903Z,5.65
2022-07-30T20:38:38.730Z,4.97
2022-07-30T20:41:09.886Z,5.93
2022-07-30T20:43:51.657Z,5.80
2022-07-30T20:46:20.638Z,5.43
2022-07-30T20:48:50.762Z,5.70
2022-07-30T20:51:18.092Z,5.82
2022-07-30T20:53:45.727Z,5.63
2022-07-30T20:56:14.885Z,6.40
2022-07-30T20:58:46.089Z,5.97
2022-07-30T21:01:17.922Z,6.07
2022-07-30T21:03:48.145Z,5.30
2022-07-30T21:06:16.165Z,5.80
2022-07-30T21:08:43.279Z,6.00
2022-07-30T21:11:10.456Z,6.43
2022-07-30T21:13:41.421Z,6.15
2022-07-30T21:16:15.638Z,5.60
2022-07-30T21:18:49.896Z,5.90
2022-07-30T21:21:18.000Z,5.75
2022-07-30T21:23:57.834Z,6.57
2022-07-30T21:26:25.039Z,5.80
2022-07-30T21:28:52.154Z,6.40
2022-07-30T21:31:19.319Z,6.78
2022-07-30T21:34:06.457Z,5.97
2022-07-30T21:36:35.831Z,6.10
2022-07-30T21:39:05.450Z,6.30
2022-07-30T21:41:40.240Z,6.63
2022-07-30T21:44:08.073Z,6.75
2022-07-30T21:46:37.699Z,6.95
2022-07-30T21:49:06.994Z,6.43
2022-07-30T21:51:34.709Z,6.63
2022-07-30T21:54:01.503Z,6.30
2022-07-30T21:56:34.113Z,6.38
2022-07-30T21:59:01.268Z,6.70
2022-07-30T22:01:28.019Z,7.47
2022-07-30T22:04:02.074Z,7.03
2022-07-30T22:06:32.795Z,7.40
2022-07-30T22:09:00.165Z,6.45
2022-07-30T22:11:42.621Z,7.13
2022-07-30T22:14:17.796Z,6.82
2022-07-30T22:16:46.895Z,7.05
2022-07-30T22:19:14.755Z,7.27
2022-07-30T22:21:42.670Z,7.68
2022-07-30T22:24:28.724Z,7.63
2022-07-30T22:26:58.372Z,7.50
2022-07-30T22:29:27.290Z,7.82
2022-07-30T22:32:02.070Z,7.38
2022-07-30T22:34:29.333Z,7.40
2022-07-30T22:36:57.571Z,7.40
2022-07-30T22:39:32.260Z,7.85
2022-07-30T22:42:12.771Z,7.83
2022-07-30T22:44:45.734Z,9.85
2022-07-30T22:47:21.195Z,7.57
2022-07-30T22:49:53.179Z,7.97
2022-07-30T22:52:28.695Z,7.28
2022-07-30T22:54:59.756Z,7.72
2022-07-30T22:57:37.746Z,7.25
2022-07-30T23:00:07.018Z,7.60
2022-07-30T23:02:39.014Z,7.78
2022-07-30T23:05:06.597Z,7.35
2022-07-30T23:07:39.767Z,8.25
2022-07-30T23:10:16.994Z,7.50
2022-07-30T23:12:46.226Z,7.40
2022-07-30T23:15:13.197Z,7.57
2022-07-30T23:17:40.364Z,7.75
2022-07-30T23:20:09.692Z,7.80
2022-07-30T23:22:37.015Z,7.63
2022-07-30T23:25:06.145Z,8.75
2022-07-30T23:27:33.399Z,7.78
2022-07-30T23:30:00.636Z,7.80
2022-07-30T23:32:27.863Z,8.57
2022-07-30T23:34:54.982Z,8.00
2022-07-30T23:37:22.112Z,8.15
2022-07-30T23:39:49.212Z,7.88
2022-07-30T23:42:16.262Z,8.07
2022-07-30T23:44:43.767Z,8.15
2022-07-30T23:47:11.061Z,8.23
2022-07-30T23:49:38.268Z,8.38
2022-07-30T23:52:05.519Z,8.90
2022-07-30T23:54:32.694Z,9.25
2022-07-30T23:56:59.943Z,9.60
2022-07-30T23:59:40.582Z,9.30
